Mia-s — V2EI7 — position and weather

sailwx.info

Track history (hours):
 
Tides and Currents Weather Stations Pressure Air Temp Water Temp Dewpoint Dewpoint Depression Visibility Wind Speed Wind Dir Waves Ship Positions

Mia-s

Last reported at 2014-Jul-29 20:33 UTC. Time now 2014-Jul-29 20:59 UTC.
Position N 33°44' W 118°14'.

Length 190 m; draft 6.8 m.

Type: Cargo ship. MMSI: 305442000.

Date/timePositionNaut miles runAvg speedWind from/ knotsBaromVisibWave heightAir tempDewpointWater temp
2014-Jul-29 20:33N 33°44' W 118°14'0 0.0
2014-Jul-29 19:33N 33°44' W 118°14'0 0.0
2014-Jul-29 17:33N 33°44' W 118°14'0 0.0
2014-Jul-29 16:33N 33°44' W 118°14'0 0.0
2014-Jul-29 15:33N 33°44' W 118°14'0 0.0
2014-Jul-29 14:33N 33°44' W 118°14'3 3.5
2014-Jul-29 13:33N 33°41' W 118°11'10 9.7
2014-Jul-29 12:33N 33°32' W 118°08'9 9.2
2014-Jul-29 11:33N 33°23' W 118°04'1312.9
2014-Jul-29 10:33N 33°11' W 117°59'1313.0
2014-Jul-29 09:33N 32°59' W 117°54'1313.1
2014-Jul-29 08:33N 32°46' W 117°49'1312.8
2014-Jul-29 07:33N 32°34' W 117°44'1312.6
2014-Jul-29 06:33N 32°23' W 117°39'1312.5
2014-Jul-29 05:33N 32°11' W 117°34'1212.2
2014-Jul-29 04:33N 31°59' W 117°29'1212.0
2014-Jul-29 03:33N 31°48' W 117°25'1212.1
2014-Jul-29 02:33N 31°37' W 117°20'1312.2
2014-Jul-29 01:31N 31°25' W 117°14'1612.0
2014-Jul-29 00:12N 31°10' W 117°09'6 9.1
2014-Jul-28 23:31N 31°04' W 117°07'9 9.2
2014-Jul-28 22:33N 30°55' W 117°03'1212.5
2014-Jul-28 21:33N 30°44' W 116°58'1312.7
2014-Jul-28 20:33N 30°32' W 116°53'1312.8
2014-Jul-28 19:30N 30°19' W 116°49'1212.6
2014-Jul-28 18:33N 30°08' W 116°44'1312.6
2014-Jul-28 17:31N 29°55' W 116°39'1212.8
2014-Jul-28 16:33N 29°43' W 116°35'1413.2
2014-Jul-28 15:30N 29°30' W 116°30'1313.5
2014-Jul-28 14:33N 29°18' W 116°25'1212.2
2014-Jul-28 13:33N 29°07' W 116°20'1212.4
2014-Jul-28 12:33N 28°55' W 116°16'1711.9
2014-Jul-28 11:07N 28°39' W 116°09'1011.6
2014-Jul-28 10:13N 28°29' W 116°05'811.8
2014-Jul-28 09:33N 28°22' W 116°02'2412.0
2014-Jul-28 07:33N 28°01' W 115°48'1212.6
2014-Jul-28 06:34N 27°51' W 115°40'1312.5
2014-Jul-28 05:30N 27°40' W 115°30'1112.0
2014-Jul-28 04:34N 27°31' W 115°23'1212.2
2014-Jul-28 03:33N 27°22' W 115°14'1412.7
2014-Jul-28 02:29N 27°11' W 115°05'  
Track history (hours):
 
Tides and Currents Weather Stations Pressure Air Temp Water Temp Dewpoint Dewpoint Depression Visibility Wind Speed Wind Dir Waves Ship Positions

Mia-s

Last reported at 2014-Jul-29 20:33 UTC. Time now 2014-Jul-29 20:59 UTC.
Position N 33°44' W 118°14'.

Length 190 m; draft 6.8 m.

Type: Cargo ship. MMSI: 305442000.

Date/timePositionNaut miles runAvg speedWind from/ knotsBaromVisibWave heightAir tempDewpointWater temp
2014-Jul-29 20:33N 33°44' W 118°14'0 0.0
2014-Jul-29 19:33N 33°44' W 118°14'0 0.0
2014-Jul-29 17:33N 33°44' W 118°14'0 0.0
2014-Jul-29 16:33N 33°44' W 118°14'0 0.0
2014-Jul-29 15:33N 33°44' W 118°14'0 0.0
2014-Jul-29 14:33N 33°44' W 118°14'3 3.5
2014-Jul-29 13:33N 33°41' W 118°11'10 9.7
2014-Jul-29 12:33N 33°32' W 118°08'9 9.2
2014-Jul-29 11:33N 33°23' W 118°04'1312.9
2014-Jul-29 10:33N 33°11' W 117°59'1313.0
2014-Jul-29 09:33N 32°59' W 117°54'1313.1
2014-Jul-29 08:33N 32°46' W 117°49'1312.8
2014-Jul-29 07:33N 32°34' W 117°44'1312.6
2014-Jul-29 06:33N 32°23' W 117°39'1312.5
2014-Jul-29 05:33N 32°11' W 117°34'1212.2
2014-Jul-29 04:33N 31°59' W 117°29'1212.0
2014-Jul-29 03:33N 31°48' W 117°25'1212.1
2014-Jul-29 02:33N 31°37' W 117°20'1312.2
2014-Jul-29 01:31N 31°25' W 117°14'1612.0
2014-Jul-29 00:12N 31°10' W 117°09'6 9.1
2014-Jul-28 23:31N 31°04' W 117°07'9 9.2
2014-Jul-28 22:33N 30°55' W 117°03'1212.5
2014-Jul-28 21:33N 30°44' W 116°58'1312.7
2014-Jul-28 20:33N 30°32' W 116°53'1312.8
2014-Jul-28 19:30N 30°19' W 116°49'1212.6
2014-Jul-28 18:33N 30°08' W 116°44'1312.6
2014-Jul-28 17:31N 29°55' W 116°39'1212.8
2014-Jul-28 16:33N 29°43' W 116°35'1413.2
2014-Jul-28 15:30N 29°30' W 116°30'1313.5
2014-Jul-28 14:33N 29°18' W 116°25'1212.2
2014-Jul-28 13:33N 29°07' W 116°20'1212.4
2014-Jul-28 12:33N 28°55' W 116°16'1711.9
2014-Jul-28 11:07N 28°39' W 116°09'1011.6
2014-Jul-28 10:13N 28°29' W 116°05'811.8
2014-Jul-28 09:33N 28°22' W 116°02'2412.0
2014-Jul-28 07:33N 28°01' W 115°48'1212.6
2014-Jul-28 06:34N 27°51' W 115°40'1312.5
2014-Jul-28 05:30N 27°40' W 115°30'1112.0
2014-Jul-28 04:34N 27°31' W 115°23'1212.2
2014-Jul-28 03:33N 27°22' W 115°14'1412.7
2014-Jul-28 02:29N 27°11' W 115°05'  

Dump ship's entire track history